Ithaca Tompkins Regional Airport Ithaca US
ICAO: KITH
IATA: ITH
Category: Medium
Scheduled Services: Yes

Elevation: 1099 ft
TransAlt. 18000 ft.

Airport Communications:
ELMIRA APP/DEP:124.3
ASOS:125.175
ATIS:125.175
CTAF:119.6
GND:121.8
BUFFALO RDO:111.8
TWR:119.6
UNICOM:122.95

KITH Zoom In..

Runways:

(A) RW 14 length 6977 ft width 150 ft
---- / hdg 145

(B) RW 15 length 2018 ft width 50 ft
---- / hdg 144

(C) RW 32 length 6977 ft width 150 ft
ILS 108.70 / hdg 325

(D) RW 33 length 2018 ft width 50 ft
---- / hdg 324

Location; KITH
Day. 21 / Time. 05.56 Zulu
* Altimeter: 30.07
* Temperature: 19° c. 66.2°f.
* Wind from: 150° Speed 09 kn.
Dewpoint: 13° c.
Visibility: 10 Statute Miles.
Clouds: Clear (automated report).

KITH 210556Z AUTO 15009KT 10SM CLR 19/13 A3007 RMK AO2 SLP174 T01890133 10244 20189 53002


Wind From 150°
Speed 09 kn.

 
 
jpsmedia.com for Web Design worldairports.se 2018   terms of use